createdAt,value
2023-04-15T00:02:15.650Z,63.70
2023-04-15T00:04:46.263Z,63.80
2023-04-15T00:07:14.945Z,63.80
2023-04-15T00:09:44.882Z,63.80
2023-04-15T00:12:12.854Z,64.00
2023-04-15T00:14:39.667Z,64.10
2023-04-15T00:17:06.523Z,64.40
2023-04-15T00:19:34.681Z,64.50
2023-04-15T00:22:01.526Z,64.50
2023-04-15T00:24:28.280Z,64.60
2023-04-15T00:26:55.086Z,64.70
2023-04-15T00:29:21.911Z,64.90
2023-04-15T00:31:48.624Z,65.10
2023-04-15T00:34:15.385Z,65.50
2023-04-15T00:36:42.280Z,65.60
2023-04-15T00:39:09.217Z,65.80
2023-04-15T00:41:39.264Z,66.40
2023-04-15T00:44:09.441Z,66.30
2023-04-15T00:46:40.327Z,66.60
2023-04-15T00:49:11.201Z,66.80
2023-04-15T00:51:38.003Z,66.70
2023-04-15T00:54:05.991Z,66.80
2023-04-15T00:56:36.965Z,67.00
2023-04-15T00:59:04.513Z,67.30
2023-04-15T01:01:31.700Z,67.40
2023-04-15T01:03:58.880Z,67.60
2023-04-15T01:06:27.415Z,68.00
2023-04-15T01:08:56.096Z,68.20
2023-04-15T01:11:24.181Z,68.40
2023-04-15T01:13:52.330Z,68.50
2023-04-15T01:16:19.997Z,68.70
2023-04-15T01:18:47.015Z,68.90
2023-04-15T01:21:13.817Z,69.20
2023-04-15T01:23:40.752Z,69.30
2023-04-15T01:26:09.269Z,69.60
2023-04-15T01:28:37.559Z,69.80
2023-04-15T01:31:12.850Z,69.90
2023-04-15T01:33:41.178Z,70.10
2023-04-15T01:36:09.752Z,70.20
2023-04-15T01:38:39.547Z,70.40
2023-04-15T01:41:08.196Z,70.50
2023-04-15T01:43:37.165Z,70.60
2023-04-15T01:46:03.997Z,70.90
2023-04-15T01:48:31.266Z,71.10
2023-04-15T01:50:58.607Z,71.40
2023-04-15T01:53:26.005Z,71.80
2023-04-15T01:55:52.856Z,72.00
2023-04-15T01:58:20.050Z,72.20
2023-04-15T02:00:47.285Z,72.50
2023-04-15T02:03:14.209Z,72.90
2023-04-15T02:05:41.078Z,73.20
2023-04-15T02:08:07.867Z,73.60
2023-04-15T02:10:35.519Z,73.90
2023-04-15T02:13:02.624Z,74.10
2023-04-15T02:15:29.601Z,74.40
2023-04-15T02:17:57.024Z,74.70
2023-04-15T02:20:23.980Z,74.90
2023-04-15T02:22:50.852Z,75.20
2023-04-15T02:25:17.811Z,75.40
2023-04-15T02:27:44.616Z,75.70
2023-04-15T02:30:11.636Z,76.00
2023-04-15T02:32:38.530Z,76.20
2023-04-15T02:35:06.789Z,76.50
2023-04-15T02:37:40.490Z,76.60
2023-04-15T02:40:10.226Z,76.80
2023-04-15T02:42:36.978Z,77.00
2023-04-15T02:45:04.040Z,77.20
2023-04-15T02:47:30.871Z,77.60
2023-04-15T02:49:58.716Z,77.90
2023-04-15T02:52:25.684Z,78.20
2023-04-15T02:54:53.920Z,78.50
2023-04-15T02:57:22.361Z,78.80
2023-04-15T02:59:49.119Z,79.10
2023-04-15T03:02:16.188Z,79.40
2023-04-15T03:04:46.149Z,79.80
2023-04-15T03:07:12.972Z,80.10
2023-04-15T03:09:43.460Z,80.30
2023-04-15T03:12:10.214Z,80.60
2023-04-15T03:14:37.032Z,80.90
2023-04-15T03:17:04.915Z,81.20
2023-04-15T03:19:32.077Z,81.50
2023-04-15T03:21:58.879Z,81.80
2023-04-15T03:24:26.312Z,82.00
2023-04-15T03:26:53.069Z,82.30
2023-04-15T03:29:19.864Z,82.70
2023-04-15T03:31:46.965Z,83.00
2023-04-15T03:34:13.691Z,83.20
2023-04-15T03:36:40.694Z,83.50
2023-04-15T03:39:07.475Z,83.80
2023-04-15T03:41:34.286Z,84.10
2023-04-15T03:44:01.177Z,84.30
2023-04-15T03:46:28.129Z,84.60
2023-04-15T03:48:54.978Z,84.90
2023-04-15T03:51:22.256Z,85.20
2023-04-15T03:53:49.331Z,85.40
2023-04-15T03:56:16.070Z,85.80
2023-04-15T03:58:42.878Z,86.20
2023-04-15T04:01:09.869Z,86.70
2023-04-15T04:03:37.336Z,86.80
2023-04-15T04:06:04.693Z,87.10
2023-04-15T04:08:31.438Z,87.50
2023-04-15T04:10:58.227Z,87.80
2023-04-15T04:13:24.990Z,88.10
2023-04-15T04:15:51.810Z,88.40
2023-04-15T04:18:18.687Z,88.70
2023-04-15T04:20:45.746Z,89.00
2023-04-15T04:23:12.618Z,89.40
2023-04-15T04:25:39.411Z,89.80
2023-04-15T04:28:06.171Z,90.00
2023-04-15T04:30:33.113Z,90.20
2023-04-15T04:33:00.047Z,90.40
2023-04-15T04:35:27.412Z,90.60
2023-04-15T04:37:54.185Z,90.80
2023-04-15T04:40:21.216Z,91.00
2023-04-15T04:42:48.154Z,91.30
2023-04-15T04:45:15.173Z,91.50
2023-04-15T04:47:41.990Z,91.70
2023-04-15T04:50:09.213Z,91.90
2023-04-15T04:52:36.083Z,92.20
2023-04-15T04:55:02.975Z,92.50
2023-04-15T04:57:29.772Z,92.70
2023-04-15T04:59:56.682Z,93.00
2023-04-15T05:02:23.779Z,93.20
2023-04-15T05:04:54.404Z,93.50
2023-04-15T05:07:21.381Z,93.80
2023-04-15T05:09:48.284Z,94.00
2023-04-15T05:12:16.225Z,94.20
2023-04-15T05:14:43.042Z,94.40
2023-04-15T05:17:09.828Z,94.70
2023-04-15T05:19:39.059Z,94.80
2023-04-15T05:22:06.299Z,94.90
2023-04-15T05:24:33.065Z,95.00
2023-04-15T05:27:01.294Z,95.20
2023-04-15T05:29:28.020Z,95.50
2023-04-15T05:31:54.920Z,95.50
2023-04-15T05:34:21.688Z,95.30
2023-04-15T05:36:48.834Z,95.30
2023-04-15T05:39:17.605Z,95.40
2023-04-15T05:41:44.831Z,95.40
2023-04-15T05:44:12.012Z,95.50
2023-04-15T05:46:39.347Z,95.70
2023-04-15T05:49:06.264Z,95.80
2023-04-15T05:51:33.049Z,96.00
2023-04-15T05:53:59.831Z,96.10
2023-04-15T05:56:27.136Z,96.50
2023-04-15T05:58:54.010Z,96.40
2023-04-15T06:01:20.906Z,96.50
2023-04-15T06:03:48.797Z,96.70
2023-04-15T06:06:16.035Z,96.80
2023-04-15T06:08:42.808Z,96.90
2023-04-15T06:11:09.607Z,97.00
2023-04-15T06:13:36.361Z,97.00
2023-04-15T06:16:04.155Z,97.00
2023-04-15T06:18:30.930Z,96.90
2023-04-15T06:20:57.778Z,96.90
2023-04-15T06:23:26.327Z,96.70
2023-04-15T06:25:53.799Z,96.50
2023-04-15T06:28:20.521Z,96.20
2023-04-15T06:30:47.469Z,95.60
2023-04-15T06:33:14.227Z,94.50
2023-04-15T06:35:41.097Z,93.40
2023-04-15T06:38:07.899Z,92.40
2023-04-15T06:40:35.567Z,91.60
2023-04-15T06:43:02.359Z,91.00
2023-04-15T06:45:29.130Z,90.20
2023-04-15T06:47:56.015Z,88.70
2023-04-15T06:50:22.877Z,85.90
2023-04-15T06:52:49.940Z,83.10
2023-04-15T06:55:16.757Z,80.40
2023-04-15T06:57:43.544Z,78.10
2023-04-15T07:00:12.064Z,76.00
2023-04-15T07:02:39.208Z,74.10
2023-04-15T07:05:07.127Z,71.80
2023-04-15T07:07:33.904Z,70.60
2023-04-15T07:10:02.103Z,69.70
2023-04-15T07:12:29.010Z,69.30
2023-04-15T07:14:55.936Z,68.80
2023-04-15T07:17:22.832Z,67.70
2023-04-15T07:19:49.672Z,66.00
2023-04-15T07:22:16.549Z,64.50
2023-04-15T07:24:43.326Z,62.80
2023-04-15T07:27:10.154Z,61.50
2023-04-15T07:29:36.969Z,60.10
2023-04-15T07:32:03.927Z,58.30
2023-04-15T07:34:31.521Z,56.90
2023-04-15T07:36:59.389Z,56.00
2023-04-15T07:39:26.436Z,54.50
2023-04-15T07:41:53.269Z,53.20
2023-04-15T07:44:20.058Z,52.50
2023-04-15T07:46:46.921Z,52.30
2023-04-15T07:49:14.456Z,51.60
2023-04-15T07:51:41.227Z,51.10
2023-04-15T07:59:31.221Z,48.40
2023-04-15T08:01:58.457Z,46.70
2023-04-15T08:04:25.790Z,45.80
2023-04-15T08:06:52.796Z,44.80
2023-04-15T08:09:20.029Z,44.10
2023-04-15T08:11:49.356Z,43.10
2023-04-15T08:14:16.750Z,42.90
2023-04-15T08:16:43.550Z,42.60
2023-04-15T08:19:10.525Z,42.10
2023-04-15T08:21:37.347Z,41.60
2023-04-15T08:24:04.279Z,41.50
2023-04-15T08:26:31.211Z,40.80
2023-04-15T08:28:58.105Z,40.40
2023-04-15T08:31:27.909Z,40.10
2023-04-15T08:33:56.863Z,39.40
2023-04-15T08:36:23.621Z,38.90
2023-04-15T08:38:50.581Z,38.50
2023-04-15T08:41:25.805Z,37.90
2023-04-15T08:44:13.569Z,37.10
2023-04-15T08:46:42.814Z,36.60
2023-04-15T08:49:14.830Z,36.50
2023-04-15T08:51:42.036Z,35.80
2023-04-15T08:54:09.759Z,35.60
2023-04-15T08:56:39.043Z,35.30
2023-04-15T08:59:07.170Z,34.40
2023-04-15T09:01:34.383Z,34.40
2023-04-15T09:04:03.400Z,34.60
2023-04-15T09:06:30.224Z,34.80
2023-04-15T09:08:58.085Z,35.10
2023-04-15T09:11:24.937Z,36.00
2023-04-15T09:13:52.356Z,36.70
2023-04-15T09:16:19.608Z,37.50
2023-04-15T09:18:46.632Z,37.50
2023-04-15T09:21:17.908Z,36.30
2023-04-15T09:24:01.647Z,36.50
2023-04-15T09:26:37.660Z,37.00
2023-04-15T09:29:09.888Z,36.20
2023-04-15T09:31:37.859Z,35.80
2023-04-15T09:34:04.966Z,35.50
2023-04-15T09:36:50.849Z,35.50
2023-04-15T09:39:18.066Z,34.10
2023-04-15T09:41:45.291Z,34.40
2023-04-15T09:44:25.733Z,34.70
2023-04-15T09:46:52.599Z,34.00
2023-04-15T09:49:20.961Z,34.50
2023-04-15T09:52:03.955Z,34.70
2023-04-15T09:54:38.955Z,34.20
2023-04-15T09:57:10.341Z,34.10
2023-04-15T09:59:44.706Z,34.30
2023-04-15T10:02:13.778Z,34.70
2023-04-15T10:04:41.646Z,35.50
2023-04-15T10:07:10.014Z,35.00
2023-04-15T10:09:38.335Z,34.40
2023-04-15T10:12:05.768Z,34.40
2023-04-15T10:14:35.755Z,34.50
2023-04-15T10:17:04.869Z,34.20
2023-04-15T10:19:37.417Z,33.90
2023-04-15T10:22:07.821Z,33.40
2023-04-15T10:24:35.418Z,33.60
2023-04-15T10:27:06.003Z,32.80
2023-04-15T10:29:37.747Z,33.40
2023-04-15T10:32:08.296Z,33.00
2023-04-15T10:34:35.791Z,32.80
2023-04-15T10:37:06.525Z,32.90
2023-04-15T10:39:34.191Z,34.30
2023-04-15T10:42:15.514Z,35.00
2023-04-15T10:44:50.869Z,36.10
2023-04-15T10:47:19.861Z,35.80
2023-04-15T10:49:59.230Z,35.60
2023-04-15T10:52:31.008Z,35.60
2023-04-15T10:55:12.820Z,35.40
2023-04-15T10:57:41.124Z,36.10
2023-04-15T11:00:19.315Z,35.20
2023-04-15T11:02:47.770Z,34.30
2023-04-15T11:05:19.128Z,34.10
2023-04-15T11:07:56.876Z,33.90
2023-04-15T11:10:32.665Z,32.60
2023-04-15T11:13:02.401Z,32.50
2023-04-15T11:15:42.532Z,32.80
2023-04-15T11:18:19.347Z,34.20
2023-04-15T11:20:59.350Z,34.60
2023-04-15T11:23:41.355Z,35.20
2023-04-15T11:26:10.248Z,35.40
2023-04-15T11:28:41.475Z,34.90
2023-04-15T11:31:13.985Z,34.00
2023-04-15T11:34:02.011Z,33.40
2023-04-15T11:36:32.211Z,34.00
2023-04-15T11:39:00.233Z,34.10
2023-04-15T11:41:27.141Z,33.50
2023-04-15T11:43:54.037Z,33.30
2023-04-15T11:46:22.728Z,32.80
2023-04-15T11:48:51.953Z,31.50
2023-04-15T11:51:21.009Z,31.90
2023-04-15T11:53:50.606Z,32.30
2023-04-15T11:56:23.342Z,31.70
2023-04-15T11:59:00.190Z,32.10
2023-04-15T12:01:39.525Z,31.40
2023-04-15T12:04:20.876Z,31.00
2023-04-15T12:06:50.141Z,31.60
2023-04-15T12:09:17.485Z,33.20
2023-04-15T12:11:47.562Z,32.00
2023-04-15T12:14:26.718Z,32.30
2023-04-15T12:16:58.622Z,31.60
2023-04-15T12:19:38.297Z,31.00
2023-04-15T12:22:16.470Z,31.50
2023-04-15T12:24:47.129Z,32.50
2023-04-15T12:27:21.514Z,32.10
2023-04-15T12:29:48.361Z,31.90
2023-04-15T12:32:17.498Z,33.70
2023-04-15T12:34:52.063Z,35.20
2023-04-15T12:37:19.001Z,36.00
2023-04-15T12:39:49.490Z,36.20
2023-04-15T12:42:17.870Z,34.90
2023-04-15T12:47:30.280Z,34.80
2023-04-15T12:50:05.762Z,34.20
2023-04-15T12:55:08.509Z,33.80
2023-04-15T12:57:35.389Z,33.50
2023-04-15T13:00:02.562Z,32.70
2023-04-15T13:02:29.594Z,33.00
2023-04-15T13:04:56.648Z,34.30
2023-04-15T13:07:23.962Z,32.90
2023-04-15T13:09:50.878Z,33.40
2023-04-15T13:12:17.676Z,34.30
2023-04-15T13:14:44.588Z,35.30
2023-04-15T13:17:11.606Z,36.30
2023-04-15T13:19:39.220Z,37.30
2023-04-15T13:22:07.252Z,38.40
2023-04-15T13:24:34.100Z,39.70
2023-04-15T13:27:01.016Z,40.20
2023-04-15T13:29:27.973Z,40.00
2023-04-15T13:31:54.891Z,40.30
2023-04-15T13:34:21.769Z,40.90
2023-04-15T13:36:48.909Z,40.70
2023-04-15T13:39:17.165Z,41.70
2023-04-15T13:41:44.007Z,42.50
2023-04-15T13:44:12.328Z,43.40
2023-04-15T13:49:24.553Z,44.70
2023-04-15T13:51:51.731Z,45.40
2023-04-15T13:54:18.544Z,45.30
2023-04-15T13:56:45.455Z,45.70
2023-04-15T14:07:30.892Z,47.60
2023-04-15T14:12:39.402Z,49.00
2023-04-15T14:15:06.841Z,49.40
2023-04-15T14:20:19.790Z,51.00
2023-04-15T14:22:46.713Z,52.10
2023-04-15T14:25:23.065Z,52.70
2023-04-15T14:27:57.532Z,52.90
2023-04-15T14:35:45.148Z,53.30
2023-04-15T14:38:11.987Z,52.90
2023-04-15T14:40:39.206Z,52.60
2023-04-15T14:43:08.566Z,52.90
2023-04-15T14:45:36.388Z,52.20
2023-04-15T14:48:03.571Z,52.20
2023-04-15T14:50:30.610Z,52.20
2023-04-15T14:52:57.507Z,53.00
2023-04-15T14:55:24.554Z,53.60
2023-04-15T14:57:51.574Z,54.10
2023-04-15T15:00:18.707Z,55.00
2023-04-15T15:02:47.579Z,55.20
2023-04-15T15:05:15.210Z,54.90
2023-04-15T15:07:42.285Z,54.60
2023-04-15T15:10:09.268Z,53.80
2023-04-15T15:12:36.408Z,54.00
2023-04-15T15:15:12.393Z,54.20
2023-04-15T15:17:43.020Z,54.50
2023-04-15T15:20:10.584Z,55.40
2023-04-15T15:22:37.355Z,56.40
2023-04-15T15:25:04.799Z,56.50
2023-04-15T15:27:32.057Z,56.70
2023-04-15T15:29:59.320Z,56.50
2023-04-15T15:32:26.268Z,56.70
2023-04-15T15:34:53.375Z,56.80
2023-04-15T15:37:20.305Z,57.30
2023-04-15T15:39:47.123Z,57.70
2023-04-15T15:42:14.116Z,58.20
2023-04-15T15:44:40.999Z,58.70
2023-04-15T15:47:08.034Z,59.10
2023-04-15T15:49:34.951Z,60.20
2023-04-15T15:52:01.796Z,60.30
2023-04-15T15:54:29.266Z,60.30
2023-04-15T15:56:57.686Z,60.20
2023-04-15T15:59:27.580Z,60.40
2023-04-15T16:01:54.387Z,60.40
2023-04-15T16:04:21.751Z,61.00
2023-04-15T16:06:49.595Z,61.30
2023-04-15T16:09:17.888Z,61.90
2023-04-15T16:11:45.817Z,62.20
2023-04-15T16:14:14.040Z,62.20
2023-04-15T16:16:41.133Z,61.90
2023-04-15T16:19:07.940Z,61.90
2023-04-15T16:21:35.625Z,62.70
2023-04-15T16:24:03.058Z,62.60
2023-04-15T16:26:30.356Z,63.10
2023-04-15T16:28:57.283Z,63.30
2023-04-15T16:31:24.337Z,63.30
2023-04-15T16:33:51.337Z,63.40
2023-04-15T16:36:18.138Z,63.70
2023-04-15T16:38:48.472Z,63.90
2023-04-15T16:41:15.923Z,64.00
2023-04-15T16:43:42.749Z,64.00
2023-04-15T16:46:09.579Z,64.70
2023-04-15T16:48:36.404Z,64.40
2023-04-15T16:51:03.266Z,65.40
2023-04-15T16:53:30.047Z,66.30
2023-04-15T16:55:57.048Z,66.20
2023-04-15T16:58:31.843Z,65.90
2023-04-15T17:00:59.319Z,65.70
2023-04-15T17:03:27.499Z,65.50
2023-04-15T17:05:54.381Z,65.40
2023-04-15T17:08:21.165Z,65.50
2023-04-15T17:10:48.008Z,66.00
2023-04-15T17:13:14.899Z,65.90
2023-04-15T17:15:41.777Z,65.90
2023-04-15T17:18:09.445Z,65.90
2023-04-15T17:20:36.302Z,66.20
2023-04-15T17:23:04.052Z,66.10
2023-04-15T17:25:31.056Z,66.10
2023-04-15T17:27:58.050Z,66.40
2023-04-15T17:30:27.871Z,66.40
2023-04-15T17:32:55.105Z,66.70
2023-04-15T17:35:23.827Z,67.00
2023-04-15T17:37:51.230Z,67.60
2023-04-15T17:40:19.277Z,67.80
2023-04-15T17:42:46.318Z,68.10
2023-04-15T17:45:15.173Z,68.40
2023-04-15T17:47:43.057Z,68.70
2023-04-15T17:50:10.320Z,68.90
2023-04-15T17:52:37.100Z,69.10
2023-04-15T17:55:12.167Z,69.60
2023-04-15T17:57:42.311Z,69.80
2023-04-15T18:00:10.730Z,69.80
2023-04-15T18:02:38.249Z,70.20
2023-04-15T18:05:07.375Z,70.30
2023-04-15T18:07:38.171Z,70.40
2023-04-15T18:10:05.715Z,70.60
2023-04-15T18:12:33.819Z,70.60
2023-04-15T18:15:00.828Z,70.80
2023-04-15T18:17:28.490Z,70.70
2023-04-15T18:19:56.052Z,71.00
2023-04-15T18:22:22.863Z,71.10
2023-04-15T18:24:50.989Z,71.20
2023-04-15T18:27:18.332Z,71.60
2023-04-15T18:29:49.506Z,71.60
2023-04-15T18:32:16.754Z,71.70
2023-04-15T18:34:43.506Z,71.90
2023-04-15T18:37:10.457Z,71.80
2023-04-15T18:39:37.244Z,72.00
2023-04-15T18:42:06.526Z,72.10
2023-04-15T18:44:36.107Z,72.30
2023-04-15T18:47:05.839Z,72.50
2023-04-15T18:49:33.324Z,72.70
2023-04-15T18:52:02.959Z,72.80
2023-04-15T18:54:31.518Z,72.90
2023-04-15T18:56:58.650Z,73.10
2023-04-15T18:59:29.702Z,73.50
2023-04-15T19:01:58.158Z,73.60
2023-04-15T19:04:25.750Z,73.60
2023-04-15T19:06:52.704Z,73.80
2023-04-15T19:09:23.956Z,74.10
2023-04-15T19:11:50.885Z,74.40
2023-04-15T19:14:19.655Z,74.40
2023-04-15T19:16:47.961Z,74.30
2023-04-15T19:19:15.154Z,74.60
2023-04-15T19:21:42.073Z,74.80
2023-04-15T19:24:10.194Z,75.30
2023-04-15T19:26:37.233Z,76.00
2023-04-15T19:29:04.240Z,76.90
2023-04-15T19:31:31.694Z,77.70
2023-04-15T19:33:58.479Z,77.80
2023-04-15T19:36:25.429Z,78.10
2023-04-15T19:38:54.398Z,78.70
2023-04-15T19:41:26.582Z,79.00
2023-04-15T19:43:53.441Z,79.10
2023-04-15T19:46:20.519Z,79.20
2023-04-15T19:48:47.521Z,79.30
2023-04-15T19:51:16.349Z,79.70
2023-04-15T19:53:43.165Z,79.60
2023-04-15T19:56:10.066Z,79.70
2023-04-15T19:58:37.426Z,79.90
2023-04-15T20:01:04.284Z,80.10
2023-04-15T20:03:31.382Z,80.30
2023-04-15T20:05:58.369Z,80.60
2023-04-15T20:08:25.195Z,80.60
2023-04-15T20:10:51.963Z,80.70
2023-04-15T20:13:18.868Z,80.90
2023-04-15T20:15:45.905Z,81.00
2023-04-15T20:18:12.711Z,81.20
2023-04-15T20:20:40.358Z,81.20
2023-04-15T20:23:07.174Z,81.30
2023-04-15T20:25:33.983Z,81.50
2023-04-15T20:28:01.194Z,81.60
2023-04-15T20:30:29.710Z,81.60
2023-04-15T20:32:56.851Z,81.70
2023-04-15T20:35:25.146Z,81.70
2023-04-15T20:37:52.131Z,82.20
2023-04-15T20:40:19.083Z,82.30
2023-04-15T20:42:48.551Z,82.30
2023-04-15T20:45:15.493Z,82.30
2023-04-15T20:47:42.557Z,82.60
2023-04-15T20:50:10.235Z,82.60
2023-04-15T20:52:37.014Z,82.60
2023-04-15T20:55:04.054Z,82.80
2023-04-15T20:57:30.851Z,83.00
2023-04-15T20:59:57.762Z,83.30
2023-04-15T21:02:25.193Z,83.50
2023-04-15T21:04:52.162Z,83.70
2023-04-15T21:07:18.976Z,83.70
2023-04-15T21:09:46.934Z,84.00
2023-04-15T21:12:13.832Z,84.20
2023-04-15T21:14:40.713Z,84.40
2023-04-15T21:17:10.891Z,84.50
2023-04-15T21:19:38.759Z,84.80
2023-04-15T21:22:05.732Z,85.00
2023-04-15T21:24:32.675Z,85.20
2023-04-15T21:26:59.637Z,85.40
2023-04-15T21:29:26.424Z,85.50
2023-04-15T21:31:53.765Z,85.80
2023-04-15T21:34:20.619Z,86.10
2023-04-15T21:36:47.498Z,86.40
2023-04-15T21:39:14.347Z,86.90
2023-04-15T21:41:41.240Z,87.40
2023-04-15T21:44:08.173Z,87.60
2023-04-15T21:46:36.105Z,87.90
2023-04-15T21:49:03.562Z,88.20
2023-04-15T21:51:31.434Z,88.70
2023-04-15T21:53:58.761Z,89.30
2023-04-15T21:56:26.064Z,89.90
2023-04-15T21:58:59.398Z,90.20
2023-04-15T22:01:26.958Z,90.50
2023-04-15T22:03:55.293Z,90.70
2023-04-15T22:06:22.374Z,90.90
2023-04-15T22:09:11.409Z,91.10
2023-04-15T22:11:37.006Z,91.20
2023-04-15T22:14:03.919Z,91.30
2023-04-15T22:16:30.733Z,91.50
2023-04-15T22:18:57.600Z,91.70
2023-04-15T22:21:24.471Z,91.90
2023-04-15T22:23:51.966Z,92.10
2023-04-15T22:26:18.938Z,92.40
2023-04-15T22:28:45.770Z,92.60
2023-04-15T22:31:13.735Z,92.70
2023-04-15T22:33:40.653Z,92.70
2023-04-15T22:36:07.733Z,92.90
2023-04-15T22:38:34.476Z,93.10
2023-04-15T22:41:01.296Z,93.20
2023-04-15T22:43:28.274Z,93.50
2023-04-15T22:45:55.507Z,93.60
2023-04-15T22:48:23.068Z,93.70
2023-04-15T22:50:50.127Z,94.00
2023-04-15T22:53:17.963Z,94.30
2023-04-15T22:55:47.079Z,94.70
2023-04-15T22:58:15.051Z,95.10
2023-04-15T23:00:42.245Z,95.40
2023-04-15T23:03:09.414Z,95.70
2023-04-15T23:05:36.713Z,95.90
2023-04-15T23:08:03.766Z,96.10
2023-04-15T23:10:30.975Z,96.30
2023-04-15T23:12:57.954Z,96.40
2023-04-15T23:15:25.465Z,96.60
2023-04-15T23:17:52.395Z,96.70
2023-04-15T23:20:19.181Z,96.90
2023-04-15T23:22:46.283Z,97.00
2023-04-15T23:25:13.057Z,97.10
2023-04-15T23:27:39.926Z,97.20
2023-04-15T23:30:07.739Z,97.40
2023-04-15T23:32:35.168Z,97.70
2023-04-15T23:35:02.032Z,97.90
2023-04-15T23:37:30.329Z,98.10
2023-04-15T23:39:57.230Z,98.50
2023-04-15T23:42:24.214Z,98.80
2023-04-15T23:44:51.868Z,99.10
2023-04-15T23:47:18.683Z,99.30
2023-04-15T23:49:45.494Z,99.40
2023-04-15T23:52:12.498Z,99.50
2023-04-15T23:54:40.163Z,99.70
2023-04-15T23:57:07.140Z,99.90
2023-04-15T23:59:33.934Z,99.90
